Terminal Aerodrome Forecast
Issued by NWS Green Bay, WI

Current Version | Previous Version | Text Only | Print | Product List | Glossary On
Versions: 1 2 3 4 5 6 7 8 9 10 11 12 13 14 15 16 17 18
000
FTUS43 KGRB 220520
TAFGRB
TAF
KGRB 220520Z 2206/2306 22007KT P6SM SCT018 OVC035
      TEMPO 2206/2210 BKN018
     FM221000 30008KT P6SM BKN018
     FM221300 32011G16KT P6SM SCT030
     FM230100 28008KT P6SM SCT050=

USA.gov is the U.S. government's official web portal to all federal, state and local government web resources and services.